Time;durP1;ratioP1;P1;durP2;ratioP2;P2;SDS_P1;SDS_P2;PMS_P1;PMS_P2;Temp;Humidity;BMP_temperature;BMP_pressure;BME280_temperature;BME280_humidity;BME280_pressure;Samples;Min_cycle;Max_cycle;Signal;HPM_P1;HPM_P2
2022/09/26 00:01:07;;;;;;;;;;;;;;;11.06;83.95;97427.63;4981213;28;19930;-95
2022/09/26 00:03:35;;;;;;;;;;;;;;;11.09;83.60;97422.34;4993815;28;19995;-96
2022/09/26 00:06:04;;;;;;;;;;;;;;;11.10;83.96;97425.88;4973766;28;19930;-95
2022/09/26 00:08:32;;;;;;;;;;;;;;;11.12;83.84;97432.56;4981490;28;19929;-95
2022/09/26 00:11:01;;;;;;;;;;;;;;;11.07;83.71;97419.16;4992032;28;19926;-94
2022/09/26 00:13:32;;;;;;;;;;;;;;;11.08;83.79;97412.63;4978980;28;20431;-96
2022/09/26 00:16:00;;;;;;;;;;;;;;;11.11;83.66;97414.66;4988928;28;19973;-95
2022/09/26 00:18:30;;;;;;;;;;;;;;;11.06;84.09;97405.88;4965471;28;19930;-95
2022/09/26 00:21:05;;;;;;;;;;;;;;;11.02;84.01;97408.44;4974715;28;19930;-96
2022/09/26 00:23:33;;;;;;;;;;;;;;;11.05;83.95;97405.09;4993990;28;19965;-95
2022/09/26 00:26:01;;;;;;;;;;;;;;;10.99;84.23;97401.75;4986081;28;19978;-94
2022/09/26 00:28:29;;;;;;;;;;;;;;;11.06;83.83;97403.97;4975563;28;20573;-95
2022/09/26 00:30:57;;;;;;;;;;;;;;;11.02;84.05;97406.56;4984035;28;19944;-95
2022/09/26 00:33:29;;;;;;;;;;;;;;;11.11;83.80;97403.00;4971557;28;20020;-95
2022/09/26 00:35:58;;;;;;;;;;;;;;;11.07;83.97;97402.03;4983809;28;20018;-94
2022/09/26 00:38:26;;;;;;;;;;;;;;;11.13;83.87;97406.16;4970809;28;20309;-95
2022/09/26 00:40:54;;;;;;;;;;;;;;;11.04;84.48;97405.44;4973073;28;19926;-95
2022/09/26 00:43:28;;;;;;;;;;;;;;;11.01;84.68;97407.66;4987475;28;19961;-95
2022/09/26 00:45:59;;;;;;;;;;;;;;;11.00;84.73;97403.34;4977487;28;20872;-95
2022/09/26 00:48:29;;;;;;;;;;;;;;;10.99;84.96;97403.69;4969811;28;19926;-95
2022/09/26 00:51:00;;;;;;;;;;;;;;;10.95;84.98;97411.69;4971114;28;19926;-95
2022/09/26 00:53:31;;;;;;;;;;;;;;;10.95;84.82;97417.13;4973271;28;19933;-95
2022/09/26 00:56:02;;;;;;;;;;;;;;;11.01;84.74;97407.66;4977363;28;19930;-93
2022/09/26 00:58:31;;;;;;;;;;;;;;;10.89;85.09;97404.84;4990708;28;19933;-95
2022/09/26 01:01:07;;;;;;;;;;;;;;;10.85;85.39;97401.16;4986048;28;20020;-94
2022/09/26 01:03:36;;;;;;;;;;;;;;;10.86;85.29;97397.31;4992808;28;19926;-94
2022/09/26 01:06:05;;;;;;;;;;;;;;;10.88;85.12;97395.09;4977901;28;19933;-92
2022/09/26 01:08:34;;;;;;;;;;;;;;;10.80;85.12;97392.41;4987088;28;20600;-92
2022/09/26 01:11:03;;;;;;;;;;;;;;;10.88;84.97;97395.09;4966553;28;20277;-93
2022/09/26 01:13:35;;;;;;;;;;;;;;;10.90;84.88;97398.28;4980861;28;19932;-94
2022/09/26 01:16:03;;;;;;;;;;;;;;;10.96;84.54;97396.19;4971250;28;19926;-94
2022/09/26 01:18:32;;;;;;;;;;;;;;;10.90;84.61;97392.84;4987589;28;19926;-95
2022/09/26 01:21:04;;;;;;;;;;;;;;;10.80;85.03;97387.75;4986200;28;19925;-94
2022/09/26 01:23:44;;;;;;;;;;;;;;;10.83;85.19;97392.56;4957272;28;19989;-95
2022/09/26 01:26:30;;;;;;;;;;;;;;;10.76;85.72;97397.72;4970751;28;19929;-95
2022/09/26 01:29:09;;;;;;;;;;;;;;;10.85;85.29;97392.22;4966682;28;19941;-93
2022/09/26 01:31:41;;;;;;;;;;;;;;;10.78;85.44;97395.44;4976630;28;19926;-94
2022/09/26 01:34:13;;;;;;;;;;;;;;;10.77;85.47;97396.56;4971115;28;19945;-94
2022/09/26 01:36:45;;;;;;;;;;;;;;;10.75;85.80;97396.09;4970180;28;19926;-93
2022/09/26 01:39:38;;;;;;;;;;;;;;;10.77;85.62;97399.28;4973412;28;19934;-94
2022/09/26 01:42:09;;;;;;;;;;;;;;;10.81;85.88;97400.22;4974838;28;19966;-94
2022/09/26 01:44:45;;;;;;;;;;;;;;;10.94;84.94;97398.44;4968891;28;19933;-94
2022/09/26 01:47:15;;;;;;;;;;;;;;;10.93;84.41;97402.28;4981780;28;19930;-94
2022/09/26 01:49:46;;;;;;;;;;;;;;;10.82;85.06;97396.41;4971410;28;20018;-95
2022/09/26 01:52:16;;;;;;;;;;;;;;;10.88;84.59;97405.97;4977568;28;19987;-94
2022/09/26 01:54:46;;;;;;;;;;;;;;;10.83;84.32;97402.63;4988284;28;19988;-94
2022/09/26 01:57:40;;;;;;;;;;;;;;;10.79;84.68;97397.03;4981933;28;19938;-94
2022/09/26 02:00:11;;;;;;;;;;;;;;;10.76;84.91;97400.41;4994538;28;19929;-96
2022/09/26 02:02:47;;;;;;;;;;;;;;;10.76;85.09;97397.72;4972867;28;19942;-93
2022/09/26 02:05:16;;;;;;;;;;;;;;;10.80;85.12;97393.19;4980460;28;19933;-92
2022/09/26 02:07:45;;;;;;;;;;;;;;;10.93;84.44;97396.84;4996873;28;19936;-95
2022/09/26 02:10:14;;;;;;;;;;;;;;;10.87;84.33;97401.66;4986992;28;19926;-94
2022/09/26 02:12:45;;;;;;;;;;;;;;;10.80;84.44;97403.28;4990629;28;19926;-94
2022/09/26 02:15:14;;;;;;;;;;;;;;;10.81;84.60;97402.94;4976824;28;19926;-94
2022/09/26 02:17:42;;;;;;;;;;;;;;;10.88;84.54;97392.38;4970358;28;19949;-95
2022/09/26 02:20:14;;;;;;;;;;;;;;;10.79;84.79;97388.88;4968090;28;19936;-94
2022/09/26 02:22:45;;;;;;;;;;;;;;;10.83;84.31;97387.13;4993573;28;20363;-95
2022/09/26 02:25:16;;;;;;;;;;;;;;;10.91;84.16;97383.56;4989135;28;19930;-94
2022/09/26 02:27:44;;;;;;;;;;;;;;;10.83;83.65;97378.97;4980942;28;20446;-92
2022/09/26 02:30:12;;;;;;;;;;;;;;;10.76;84.09;97378.69;4972222;28;19925;-96
2022/09/26 02:32:42;;;;;;;;;;;;;;;10.74;84.28;97376.28;4979275;28;20369;-93
2022/09/26 02:35:52;;;;;;;;;;;;;;;10.69;84.91;97371.00;4989601;28;19934;-93
2022/09/26 02:38:05;;;;;;;;;;;;;;;10.73;84.67;97368.47;4993091;28;19926;-94
2022/09/26 02:40:41;;;;;;;;;;;;;;;10.71;84.63;97368.78;4976275;28;19932;-93
2022/09/26 02:43:14;;;;;;;;;;;;;;;10.80;83.75;97368.75;4990126;28;20328;-93
2022/09/26 02:45:44;;;;;;;;;;;;;;;10.74;84.16;97370.03;4974828;28;20458;-93
2022/09/26 02:48:29;;;;;;;;;;;;;;;10.76;84.22;97367.81;4991489;28;19964;-93
2022/09/26 02:51:01;;;;;;;;;;;;;;;10.70;84.30;97366.38;4988767;28;19969;-96
2022/09/26 02:53:36;;;;;;;;;;;;;;;10.75;84.04;97371.63;4991760;28;19926;-92
2022/09/26 02:56:08;;;;;;;;;;;;;;;10.68;84.14;97366.72;4987213;28;20025;-93
2022/09/26 02:58:41;;;;;;;;;;;;;;;10.73;84.21;97371.16;4968348;28;19933;-92
2022/09/26 03:01:11;;;;;;;;;;;;;;;10.68;84.20;97360.47;4988645;28;20008;-93
2022/09/26 03:03:42;;;;;;;;;;;;;;;10.66;84.68;97362.75;4978270;28;19933;-94
2022/09/26 03:06:12;;;;;;;;;;;;;;;10.67;84.61;97356.19;4976636;28;19937;-93
2022/09/26 03:08:45;;;;;;;;;;;;;;;10.68;84.53;97355.03;4977698;28;19946;-93
2022/09/26 03:11:18;;;;;;;;;;;;;;;10.63;84.59;97358.72;4976206;28;19934;-93
2022/09/26 03:13:47;;;;;;;;;;;;;;;10.62;84.73;97353.63;4980002;28;19932;-95
2022/09/26 03:16:15;;;;;;;;;;;;;;;10.67;84.79;97356.19;4980288;28;19933;-93
2022/09/26 03:18:45;;;;;;;;;;;;;;;10.73;84.27;97355.66;4972156;28;19985;-93
2022/09/26 03:24:08;;;;;;;;;;;;;;;10.71;83.58;97338.09;4980344;28;19941;-93
2022/09/26 03:26:37;;;;;;;;;;;;;;;10.67;83.72;97337.94;4969138;28;19934;-93
2022/09/26 03:29:05;;;;;;;;;;;;;;;10.66;84.18;97338.28;4979035;28;19926;-93
2022/09/26 03:31:36;;;;;;;;;;;;;;;10.69;84.33;97343.06;4991121;28;19926;-93
2022/09/26 03:34:06;;;;;;;;;;;;;;;10.62;83.92;97348.19;4978758;28;19926;-94
2022/09/26 03:36:35;;;;;;;;;;;;;;;10.66;83.78;97346.44;4980336;28;19957;-94
2022/09/26 03:39:03;;;;;;;;;;;;;;;10.74;83.48;97329.28;4977630;28;19953;-96
2022/09/26 03:41:50;;;;;;;;;;;;;;;10.63;83.89;97336.22;4993345;28;20007;-95
2022/09/26 03:44:47;;;;;;;;;;;;;;;10.60;83.92;97336.84;4977321;28;19952;-92
2022/09/26 03:47:46;;;;;;;;;;;;;;;10.66;83.88;97324.72;4982113;28;20394;-96
2022/09/26 03:50:39;;;;;;;;;;;;;;;10.63;84.01;97328.06;4973656;28;19926;-93
2022/09/26 03:53:07;;;;;;;;;;;;;;;10.57;83.90;97324.72;4992839;28;19925;-93
2022/09/26 03:55:38;;;;;;;;;;;;;;;10.59;83.62;97322.47;4978245;28;19948;-93
2022/09/26 03:58:09;;;;;;;;;;;;;;;10.55;83.93;97326.19;4979610;28;19926;-95
2022/09/26 04:00:41;;;;;;;;;;;;;;;10.57;84.00;97318.50;4979759;28;20029;-94
2022/09/26 04:03:10;;;;;;;;;;;;;;;10.53;84.10;97321.06;4987482;28;19926;-92
2022/09/26 04:05:40;;;;;;;;;;;;;;;10.53;84.38;97317.56;4980078;28;20037;-92
2022/09/26 04:08:09;;;;;;;;;;;;;;;10.63;83.73;97319.91;4988445;28;19926;-92
2022/09/26 04:10:38;;;;;;;;;;;;;;;10.58;83.97;97311.94;4994390;28;19930;-94
2022/09/26 04:13:11;;;;;;;;;;;;;;;10.60;83.50;97304.25;4983030;28;19992;-94
2022/09/26 04:16:00;;;;;;;;;;;;;;;10.54;83.79;97319.13;5012729;28;19926;-93
2022/09/26 04:18:28;;;;;;;;;;;;;;;10.56;83.69;97311.47;5003836;28;19926;-93
2022/09/26 04:20:58;;;;;;;;;;;;;;;10.61;83.69;97311.31;5014384;28;19937;-93
2022/09/26 04:23:27;;;;;;;;;;;;;;;10.56;83.74;97306.06;5029079;28;19929;-93
2022/09/26 04:25:55;;;;;;;;;;;;;;;10.52;83.64;97307.81;5003823;28;19926;-92
2022/09/26 04:28:25;;;;;;;;;;;;;;;10.46;83.75;97305.28;4998665;28;19930;-93
2022/09/26 04:30:53;;;;;;;;;;;;;;;10.43;83.84;97305.91;5008265;28;19929;-94
2022/09/26 04:33:21;;;;;;;;;;;;;;;10.41;83.69;97305.44;4999006;28;19925;-93
2022/09/26 04:36:06;;;;;;;;;;;;;;;10.51;82.98;97298.09;5010933;28;20016;-93
2022/09/26 04:38:36;;;;;;;;;;;;;;;10.45;83.55;97300.97;4998025;28;19956;-93
2022/09/26 04:41:08;;;;;;;;;;;;;;;10.37;83.91;97296.34;4993876;28;19937;-94
2022/09/26 04:43:38;;;;;;;;;;;;;;;10.35;83.96;97298.59;5009299;28;19948;-95
2022/09/26 04:46:11;;;;;;;;;;;;;;;10.32;84.19;97291.09;4998658;28;20028;-95
2022/09/26 04:48:45;;;;;;;;;;;;;;;10.36;83.96;97297.47;4999186;28;20008;-96
2022/09/26 04:51:18;;;;;;;;;;;;;;;10.34;83.90;97298.94;4995548;28;20425;-95
2022/09/26 04:53:51;;;;;;;;;;;;;;;10.35;83.67;97297.81;4993277;28;20400;-96
2022/09/26 04:56:29;;;;;;;;;;;;;;;10.33;83.35;97291.88;5010227;28;19956;-95
2022/09/26 04:59:02;;;;;;;;;;;;;;;10.33;83.59;97291.88;4999168;28;19925;-95
2022/09/26 05:01:39;;;;;;;;;;;;;;;10.21;84.68;97284.41;5011501;28;20391;-96
2022/09/26 05:07:05;;;;;;;;;;;;;;;10.26;84.06;97286.97;5004739;28;19930;-96
2022/09/26 05:09:33;;;;;;;;;;;;;;;10.30;83.95;97287.13;4998039;28;20439;-95
2022/09/26 05:12:10;;;;;;;;;;;;;;;10.35;83.25;97285.03;5000622;28;19926;-96
2022/09/26 05:14:43;;;;;;;;;;;;;;;10.34;83.38;97279.94;4995410;28;20012;-89
2022/09/26 05:17:11;;;;;;;;;;;;;;;10.31;83.18;97288.72;5005430;28;20622;-90
2022/09/26 05:19:43;;;;;;;;;;;;;;;10.30;83.36;97287.91;4990697;28;20401;-94
2022/09/26 05:22:35;;;;;;;;;;;;;;;10.34;83.09;97290.78;5006301;28;19925;-90
2022/09/26 05:27:52;;;;;;;;;;;;;;;10.36;82.18;97283.09;4989496;28;19926;-89
2022/09/26 05:30:31;;;;;;;;;;;;;;;10.31;82.75;97289.50;5008628;28;19929;-86
2022/09/26 05:32:59;;;;;;;;;;;;;;;10.33;82.56;97283.75;4992856;28;20273;-84
2022/09/26 05:35:28;;;;;;;;;;;;;;;10.27;82.42;97285.84;4992206;28;20651;-96
2022/09/26 05:37:59;;;;;;;;;;;;;;;10.23;82.34;97285.72;4978387;28;19925;-95
2022/09/26 05:43:18;;;;;;;;;;;;;;;10.24;82.02;97294.66;5002466;28;20004;-95
2022/09/26 05:45:50;;;;;;;;;;;;;;;10.34;81.42;97301.66;4996381;28;20015;-93
2022/09/26 05:48:25;;;;;;;;;;;;;;;10.20;81.87;97296.38;5000388;28;19937;-81
2022/09/26 05:50:53;;;;;;;;;;;;;;;10.14;81.95;97290.34;4995913;28;19925;-95
2022/09/26 05:53:24;;;;;;;;;;;;;;;10.19;81.87;97282.00;4993614;28;20456;-96
2022/09/26 05:55:53;;;;;;;;;;;;;;;10.12;82.36;97283.63;5008255;28;19972;-91
2022/09/26 05:58:35;;;;;;;;;;;;;;;10.10;82.74;97283.16;5012765;28;19934;-95
2022/09/26 06:01:18;;;;;;;;;;;;;;;10.15;82.34;97275.63;5013112;28;19925;-91
2022/09/26 06:03:55;;;;;;;;;;;;;;;10.15;82.22;97275.63;5005170;28;19940;-93
2022/09/26 06:06:29;;;;;;;;;;;;;;;10.22;82.20;97280.56;4996000;28;20423;-92
2022/09/26 06:09:08;;;;;;;;;;;;;;;10.14;82.13;97286.81;5006542;28;19926;-92
2022/09/26 06:11:52;;;;;;;;;;;;;;;10.15;82.10;97278.34;5010338;28;20380;-94
2022/09/26 06:14:24;;;;;;;;;;;;;;;10.23;82.63;97282.19;4995636;28;19925;-94
2022/09/26 06:16:55;;;;;;;;;;;;;;;10.38;80.82;97287.09;4979574;28;20012;-93
2022/09/26 06:19:49;;;;;;;;;;;;;;;10.27;81.15;97277.69;5013116;28;19925;-92
2022/09/26 06:25:11;;;;;;;;;;;;;;;10.31;81.25;97280.56;4999210;28;19937;-92
2022/09/26 06:27:41;;;;;;;;;;;;;;;10.28;81.27;97279.31;4999662;28;19925;-93
2022/09/26 06:30:11;;;;;;;;;;;;;;;10.27;81.09;97277.69;5000523;28;19935;-93
2022/09/26 06:32:48;;;;;;;;;;;;;;;10.41;80.45;97261.22;4999919;28;19952;-93
2022/09/26 06:35:20;;;;;;;;;;;;;;;10.27;81.04;97277.69;5037015;28;19957;-93
2022/09/26 06:38:07;;;;;;;;;;;;;;;10.25;81.48;97276.44;5036059;28;19989;-92
2022/09/26 06:40:35;;;;;;;;;;;;;;;10.30;81.23;97276.28;5010293;28;19946;-92
2022/09/26 06:43:04;;;;;;;;;;;;;;;10.27;80.77;97263.34;4996418;28;19926;-92
2022/09/26 06:45:52;;;;;;;;;;;;;;;10.27;80.84;97249.75;5012515;28;19925;-93
2022/09/26 06:48:45;;;;;;;;;;;;;;;10.28;80.90;97267.63;5003227;28;20424;-93
2022/09/26 06:51:39;;;;;;;;;;;;;;;10.34;80.58;97253.56;4988892;28;19925;-93
2022/09/26 06:54:09;;;;;;;;;;;;;;;10.36;81.07;97253.25;4997845;28;19961;-93
2022/09/26 06:56:39;;;;;;;;;;;;;;;10.42;81.38;97251.94;4993354;28;19926;-92
2022/09/26 06:59:07;;;;;;;;;;;;;;;10.49;79.87;97252.22;4998046;28;19932;-93
2022/09/26 07:01:41;;;;;;;;;;;;;;;10.46;79.89;97244.75;4994789;28;20027;-92
2022/09/26 07:04:37;;;;;;;;;;;;;;;10.51;79.80;97251.91;5010253;28;19929;-92
2022/09/26 07:07:26;;;;;;;;;;;;;;;10.58;78.63;97255.69;5014309;28;19932;-93
2022/09/26 07:09:56;;;;;;;;;;;;;;;10.64;79.21;97254.38;5012901;28;20020;-93
2022/09/26 07:12:46;;;;;;;;;;;;;;;10.69;77.81;97259.63;4996623;28;20228;-92
2022/09/26 07:15:16;;;;;;;;;;;;;;;10.75;77.20;97243.94;4994167;28;19930;-93
2022/09/26 07:17:46;;;;;;;;;;;;;;;10.69;77.94;97253.41;4996991;28;19934;-92
2022/09/26 07:20:38;;;;;;;;;;;;;;;10.62;78.94;97251.22;5011142;28;19937;-92
2022/09/26 07:23:33;;;;;;;;;;;;;;;10.77;79.23;97252.56;5004299;28;20026;-92
2022/09/26 07:26:02;;;;;;;;;;;;;;;10.89;79.02;97254.56;4998288;28;19949;-94
2022/09/26 07:28:31;;;;;;;;;;;;;;;10.95;78.05;97253.25;4996990;28;19929;-92
2022/09/26 07:30:59;;;;;;;;;;;;;;;10.98;77.96;97253.41;5008818;28;19976;-92
2022/09/26 07:33:48;;;;;;;;;;;;;;;11.09;77.67;97253.81;5009241;28;19925;-93
2022/09/26 07:36:19;;;;;;;;;;;;;;;11.07;76.41;97250.63;5006896;28;19930;-92
2022/09/26 07:38:48;;;;;;;;;;;;;;;11.13;75.73;97251.22;5000151;28;19936;-92
2022/09/26 07:41:19;;;;;;;;;;;;;;;11.20;75.17;97248.78;5005755;28;19926;-92
2022/09/26 07:43:50;;;;;;;;;;;;;;;11.25;74.52;97245.88;4995121;28;19992;-94
2022/09/26 07:52:36;;;;;;;;;;;;;;;11.39;72.93;97227.34;5001277;28;19933;-93
2022/09/26 07:55:20;;;;;;;;;;;;;;;11.33;72.90;97239.53;5011843;28;19925;-94
2022/09/26 07:58:05;;;;;;;;;;;;;;;11.39;73.48;97238.22;5009978;28;19926;-94
2022/09/26 08:00:55;;;;;;;;;;;;;;;11.48;73.03;97243.59;5009122;28;19933;-91
2022/09/26 08:03:45;;;;;;;;;;;;;;;11.54;72.07;97237.59;5008448;28;19932;-93
2022/09/26 08:06:38;;;;;;;;;;;;;;;11.53;72.38;97240.66;5006033;28;19936;-93
2022/09/26 08:09:09;;;;;;;;;;;;;;;11.66;71.44;97238.78;5004630;28;19940;-94
2022/09/26 08:12:03;;;;;;;;;;;;;;;11.62;71.39;97243.31;4981135;28;19929;-94
2022/09/26 08:15:05;;;;;;;;;;;;;;;11.58;71.59;97234.22;4950911;28;19937;-93
2022/09/26 08:17:42;;;;;;;;;;;;;;;11.64;71.29;97230.16;4995699;28;19964;-95
2022/09/26 08:20:11;;;;;;;;;;;;;;;11.65;71.36;97227.09;4995340;28;20009;-94
2022/09/26 08:22:40;;;;;;;;;;;;;;;11.68;71.22;97229.16;4991930;28;19933;-94
2022/09/26 08:25:12;;;;;;;;;;;;;;;11.76;72.45;97227.47;5005793;28;19936;-94
2022/09/26 08:27:58;;;;;;;;;;;;;;;11.91;72.36;97221.44;4987018;28;19932;-94
2022/09/26 08:30:30;;;;;;;;;;;;;;;12.00;70.78;97226.81;5010040;28;19937;-94
2022/09/26 08:33:02;;;;;;;;;;;;;;;12.07;70.71;97225.09;4993964;28;19926;-86
2022/09/26 08:35:37;;;;;;;;;;;;;;;12.18;67.91;97216.50;5013029;28;19925;-93
2022/09/26 08:38:18;;;;;;;;;;;;;;;12.20;68.00;97208.81;5007855;28;19932;-93
2022/09/26 08:41:13;;;;;;;;;;;;;;;12.38;68.13;97217.53;5008614;28;21221;-94
2022/09/26 08:44:23;;;;;;;;;;;;;;;12.44;68.01;97213.47;4974294;28;19926;-93
2022/09/26 08:47:39;;;;;;;;;;;;;;;12.49;68.08;97216.75;5024068;28;19934;-93
2022/09/26 08:50:39;;;;;;;;;;;;;;;12.58;66.75;97217.44;5003855;28;20493;-93
2022/09/26 08:53:11;;;;;;;;;;;;;;;12.68;67.73;97216.19;4995722;28;19968;-94
2022/09/26 08:55:46;;;;;;;;;;;;;;;12.74;64.84;97205.84;4994857;28;19956;-93
2022/09/26 08:58:19;;;;;;;;;;;;;;;12.71;64.71;97203.81;4996022;28;19932;-93
2022/09/26 09:00:55;;;;;;;;;;;;;;;12.53;65.35;97211.44;5005281;28;19933;-93
2022/09/26 09:03:25;;;;;;;;;;;;;;;12.64;66.88;97206.31;4995354;28;19964;-94
2022/09/26 09:05:56;;;;;;;;;;;;;;;12.81;65.18;97211.50;5003297;28;20016;-92
2022/09/26 09:08:25;;;;;;;;;;;;;;;12.74;63.55;97211.31;5008630;28;19925;-94
2022/09/26 09:11:09;;;;;;;;;;;;;;;12.65;62.68;97205.16;4995514;28;20374;-93
2022/09/26 09:13:44;;;;;;;;;;;;;;;12.66;63.85;97204.81;5004942;28;19926;-94
2022/09/26 09:16:52;;;;;;;;;;;;;;;12.66;64.96;97198.56;4982841;28;19940;-93
2022/09/26 09:19:45;;;;;;;;;;;;;;;12.64;65.13;97201.66;5005091;28;19933;-94
2022/09/26 09:22:40;;;;;;;;;;;;;;;12.70;65.13;97194.03;5005949;28;20399;-93
2022/09/26 09:25:16;;;;;;;;;;;;;;;12.79;63.90;97192.00;5004975;28;19967;-93
2022/09/26 09:27:50;;;;;;;;;;;;;;;12.96;63.57;97189.00;5002531;28;19925;-93
2022/09/26 09:30:24;;;;;;;;;;;;;;;13.00;61.90;97189.91;5007049;28;19929;-92
2022/09/26 09:32:53;;;;;;;;;;;;;;;13.11;62.99;97180.09;5001558;28;19940;-94
2022/09/26 09:35:35;;;;;;;;;;;;;;;13.19;62.35;97172.91;4994466;28;19976;-89
2022/09/26 09:38:13;;;;;;;;;;;;;;;13.18;62.09;97178.72;5008470;28;19977;-92
2022/09/26 09:41:02;;;;;;;;;;;;;;;13.24;61.84;97177.38;5003198;28;20010;-86
2022/09/26 09:43:55;;;;;;;;;;;;;;;13.35;61.59;97176.53;5003060;28;19930;-88
2022/09/26 09:46:27;;;;;;;;;;;;;;;13.29;59.64;97161.53;4998509;28;19932;-84
2022/09/26 09:48:58;;;;;;;;;;;;;;;13.28;60.01;97164.63;5003868;28;19941;-83
2022/09/26 09:51:31;;;;;;;;;;;;;;;13.28;60.14;97170.88;4989703;28;19934;-80
2022/09/26 09:54:09;;;;;;;;;;;;;;;13.36;59.84;97169.13;5004211;28;19971;-81
2022/09/26 09:56:41;;;;;;;;;;;;;;;13.37;60.10;97168.00;5002298;28;20098;-82
2022/09/26 09:59:14;;;;;;;;;;;;;;;13.50;59.50;97161.34;4992100;28;19976;-91
2022/09/26 10:02:12;;;;;;;;;;;;;;;13.55;60.07;97163.03;5000989;28;19926;-90
2022/09/26 10:05:16;;;;;;;;;;;;;;;13.58;60.29;97157.69;5004288;28;20088;-91
2022/09/26 10:07:46;;;;;;;;;;;;;;;13.69;60.15;97151.69;5005339;28;20335;-93
2022/09/26 10:10:39;;;;;;;;;;;;;;;13.93;58.71;97151.56;5005835;28;19932;-82
2022/09/26 10:13:44;;;;;;;;;;;;;;;13.94;58.33;97153.13;4983968;28;19971;-85
2022/09/26 10:16:32;;;;;;;;;;;;;;;14.24;59.32;97141.78;5003615;28;19957;-86
2022/09/26 10:19:09;;;;;;;;;;;;;;;14.23;57.99;97137.47;4990777;28;20273;-86
2022/09/26 10:21:55;;;;;;;;;;;;;;;14.35;57.76;97134.63;5004927;28;19937;-80
2022/09/26 10:24:25;;;;;;;;;;;;;;;14.21;57.07;97134.28;4999998;28;19956;-80
2022/09/26 10:27:13;;;;;;;;;;;;;;;14.10;56.93;97132.06;5005437;28;19933;-80
2022/09/26 10:29:43;;;;;;;;;;;;;;;13.93;57.09;97128.91;5002313;28;20028;-83
2022/09/26 10:32:16;;;;;;;;;;;;;;;13.77;58.12;97126.16;5001578;28;19926;-81
2022/09/26 10:38:00;;;;;;;;;;;;;;;14.03;56.82;97118.25;5004890;28;19925;-82
2022/09/26 10:40:47;;;;;;;;;;;;;;;14.13;55.74;97125.91;5003230;28;19937;-79
2022/09/26 10:43:23;;;;;;;;;;;;;;;13.97;54.99;97125.13;4995673;28;19931;-78
2022/09/26 10:46:17;;;;;;;;;;;;;;;13.85;55.98;97111.56;5012392;28;19934;-83
2022/09/26 10:49:06;;;;;;;;;;;;;;;13.76;56.20;97114.47;5012224;28;19925;-81
2022/09/26 10:52:17;;;;;;;;;;;;;;;13.74;57.16;97114.03;5000036;28;19999;-82
2022/09/26 10:54:47;;;;;;;;;;;;;;;13.76;56.65;97108.22;4995679;28;19961;-82
2022/09/26 10:57:44;;;;;;;;;;;;;;;13.71;58.25;97108.47;4997168;28;19925;-81
2022/09/26 11:00:17;;;;;;;;;;;;;;;13.83;58.41;97114.63;5016127;28;19980;-80
2022/09/26 11:03:12;;;;;;;;;;;;;;;14.10;56.90;97107.50;5011683;28;20421;-85
2022/09/26 11:06:01;;;;;;;;;;;;;;;14.22;58.30;97103.06;5008070;28;20024;-83
2022/09/26 11:08:34;;;;;;;;;;;;;;;14.31;57.36;97100.94;5000241;28;19941;-84
2022/09/26 11:11:21;;;;;;;;;;;;;;;14.35;56.01;97096.38;5006475;28;20077;-85
2022/09/26 11:14:03;;;;;;;;;;;;;;;14.30;55.54;97099.38;4994945;28;19925;-86
2022/09/26 11:16:50;;;;;;;;;;;;;;;14.33;55.14;97091.28;5010991;28;19929;-85
2022/09/26 11:19:22;;;;;;;;;;;;;;;14.34;54.45;97089.31;5004387;28;19979;-86
2022/09/26 11:21:52;;;;;;;;;;;;;;;14.42;55.06;97078.19;5007914;28;20039;-81
2022/09/26 11:24:23;;;;;;;;;;;;;;;14.39;54.85;97080.84;4993941;28;19929;-89
2022/09/26 11:30:10;;;;;;;;;;;;;;;14.54;55.10;97077.31;4990736;28;19978;-83
2022/09/26 11:33:09;;;;;;;;;;;;;;;14.74;54.93;97080.84;5009235;28;19940;-81
2022/09/26 11:36:09;;;;;;;;;;;;;;;15.02;55.06;97083.41;4993487;28;19982;-84
2022/09/26 11:39:02;;;;;;;;;;;;;;;15.03;54.71;97082.25;5009890;28;19925;-82
2022/09/26 11:41:39;;;;;;;;;;;;;;;14.96;54.63;97070.34;4993613;28;19937;-82
2022/09/26 11:44:18;;;;;;;;;;;;;;;14.99;54.11;97067.69;5009863;28;19930;-82
2022/09/26 11:47:27;;;;;;;;;;;;;;;14.92;55.18;97059.38;5009756;28;19925;-82
2022/09/26 11:50:02;;;;;;;;;;;;;;;14.87;55.69;97059.66;4994845;28;20372;-81
2022/09/26 11:52:49;;;;;;;;;;;;;;;14.75;54.79;97054.31;5007582;28;19934;-81
2022/09/26 11:55:19;;;;;;;;;;;;;;;14.88;55.48;97056.53;5006668;28;19932;-81
2022/09/26 11:57:54;;;;;;;;;;;;;;;14.88;54.91;97042.88;4995113;28;19932;-78
2022/09/26 12:00:49;;;;;;;;;;;;;;;14.89;54.17;97047.19;5008691;28;19984;-82
2022/09/26 12:03:27;;;;;;;;;;;;;;;14.88;54.36;97036.63;5001479;28;19926;-85
2022/09/26 12:05:59;;;;;;;;;;;;;;;14.75;53.53;97024.22;5006555;28;19947;-84
2022/09/26 12:08:31;;;;;;;;;;;;;;;14.86;54.92;97019.75;4993550;28;19926;-83
2022/09/26 12:11:02;;;;;;;;;;;;;;;15.01;53.04;97021.63;5013871;28;19932;-82
2022/09/26 12:13:35;;;;;;;;;;;;;;;14.94;53.66;97013.28;4997326;28;19926;-83
2022/09/26 12:16:05;;;;;;;;;;;;;;;15.07;54.17;97003.75;4994279;28;20383;-86
2022/09/26 12:18:36;;;;;;;;;;;;;;;15.12;54.32;96997.19;5007191;28;20032;-84
2022/09/26 12:24:03;;;;;;;;;;;;;;;15.07;53.31;96994.75;5009799;28;19929;-86
2022/09/26 12:26:33;;;;;;;;;;;;;;;15.04;53.91;96987.28;4992850;28;19965;-85
2022/09/26 12:29:09;;;;;;;;;;;;;;;14.90;53.62;96988.59;4994681;28;19948;-82
2022/09/26 12:31:40;;;;;;;;;;;;;;;14.90;53.96;96990.53;5009310;28;20281;-83
2022/09/26 12:34:12;;;;;;;;;;;;;;;15.08;51.48;96988.16;4997360;28;19936;-77
2022/09/26 12:36:46;;;;;;;;;;;;;;;15.08;52.16;96975.28;5004047;28;19948;-81
2022/09/26 12:42:14;;;;;;;;;;;;;;;15.08;53.96;96961.59;5010128;28;19925;-87
2022/09/26 12:44:57;;;;;;;;;;;;;;;15.20;53.00;96955.16;4991039;28;19932;-87
2022/09/26 12:47:45;;;;;;;;;;;;;;;15.05;54.21;96958.78;4993007;28;20419;-85
2022/09/26 12:50:22;;;;;;;;;;;;;;;15.12;52.81;96956.16;4990514;28;20042;-85
2022/09/26 12:52:55;;;;;;;;;;;;;;;15.11;52.74;96949.13;5008613;28;19928;-81
2022/09/26 12:55:26;;;;;;;;;;;;;;;15.13;53.03;96939.41;4994050;28;19967;-84
2022/09/26 12:58:22;;;;;;;;;;;;;;;15.32;53.32;96940.50;5004043;28;20404;-84
2022/09/26 13:00:53;;;;;;;;;;;;;;;15.25;53.66;96945.84;4993195;28;20373;-81
2022/09/26 13:03:31;;;;;;;;;;;;;;;15.32;51.28;96927.59;4993252;28;19925;-88
2022/09/26 13:06:08;;;;;;;;;;;;;;;15.14;51.84;96932.78;5008967;28;19988;-89
2022/09/26 13:08:38;;;;;;;;;;;;;;;15.19;51.42;96928.94;5012647;28;20066;-92
2022/09/26 13:11:10;;;;;;;;;;;;;;;15.17;51.16;96923.81;5009957;28;20327;-83
2022/09/26 13:13:57;;;;;;;;;;;;;;;15.07;52.46;96924.44;4990064;28;19934;-78
2022/09/26 13:16:30;;;;;;;;;;;;;;;15.19;54.28;96918.00;5006077;28;19926;-76
2022/09/26 13:19:02;;;;;;;;;;;;;;;15.46;52.44;96922.34;4992101;28;19945;-77
2022/09/26 13:21:35;;;;;;;;;;;;;;;15.68;50.80;96915.28;5003548;28;19925;-78
2022/09/26 13:24:08;;;;;;;;;;;;;;;15.65;51.40;96916.00;4999938;28;19957;-78
2022/09/26 13:26:41;;;;;;;;;;;;;;;15.65;51.25;96910.53;5004134;28;19933;-85
2022/09/26 13:29:12;;;;;;;;;;;;;;;15.64;49.22;96908.19;4991246;28;19925;-81
2022/09/26 13:31:45;;;;;;;;;;;;;;;15.47;49.03;96895.78;5005356;28;20379;-78
2022/09/26 13:34:16;;;;;;;;;;;;;;;15.43;49.14;96895.72;5008610;28;19977;-85
2022/09/26 13:36:44;;;;;;;;;;;;;;;15.32;50.08;96894.75;5007720;28;20411;-86
2022/09/26 13:39:13;;;;;;;;;;;;;;;15.27;49.35;96886.84;5009255;28;20380;-81
2022/09/26 13:42:06;;;;;;;;;;;;;;;15.25;49.86;96885.66;4993051;28;19929;-82
2022/09/26 13:44:43;;;;;;;;;;;;;;;15.25;48.81;96888.38;5005826;28;19933;-85
2022/09/26 13:47:15;;;;;;;;;;;;;;;15.14;48.29;96877.28;4988366;28;20060;-86
2022/09/26 13:49:49;;;;;;;;;;;;;;;15.06;48.01;96879.09;4991806;28;19956;-81
2022/09/26 13:52:21;;;;;;;;;;;;;;;15.02;50.19;96880.19;4992205;28;19926;-85
2022/09/26 13:54:54;;;;;;;;;;;;;;;15.12;47.72;96872.16;5008137;28;19939;-87
2022/09/26 13:57:30;;;;;;;;;;;;;;;15.02;49.48;96869.22;5009516;28;20024;-85
2022/09/26 13:59:59;;;;;;;;;;;;;;;15.10;48.81;96874.47;5001432;28;20365;-87
2022/09/26 14:02:30;;;;;;;;;;;;;;;15.04;48.71;96867.72;4990062;28;19929;-87
2022/09/26 14:05:29;;;;;;;;;;;;;;;14.91;49.73;96877.25;5005754;28;20303;-86
2022/09/26 14:10:52;;;;;;;;;;;;;;;15.03;49.45;96871.63;5002611;28;20029;-86